Terminal Aerodrome Forecast
Issued by NWS

Home | Current Version | Previous Version | Text Only | Print | Product List | Glossary On
Versions: 1 2 3 4 5 6 7 8 9 10 11 12 13 14 15 16 17 18 19 20 21 22 23 24 25 26 27 28 29 30 31 32 33 34 35 36 37 38 39 40
000
FTUS46 KLOX 260540 AAA
TAFSBP
TAF AMD
KSBP 260540Z 2606/2706 32008KT P6SM SKC
     FM261300 VRB03KT 3SM BR BKN003
     FM261500 30004KT 5SM BR BKN006
     FM261630 30006KT P6SM FEW010
     FM262000 31012KT P6SM SKC
     FM270400 VRB05KT P6SM SKC=

USA.gov is the U.S. government's official web portal to all federal, state and local government web resources and services.